createdAt,value
2023-05-16T00:02:05.653Z,4.85
2023-05-16T00:04:33.473Z,5.05
2023-05-16T00:07:01.135Z,4.58
2023-05-16T00:09:28.667Z,4.60
2023-05-16T00:11:56.452Z,5.03
2023-05-16T00:14:25.762Z,4.85
2023-05-16T00:16:54.959Z,5.00
2023-05-16T00:19:23.238Z,5.58
2023-05-16T00:21:51.061Z,5.25
2023-05-16T00:24:18.623Z,5.20
2023-05-16T00:26:46.587Z,5.53
2023-05-16T00:29:15.655Z,5.50
2023-05-16T00:31:43.316Z,4.87
2023-05-16T00:34:11.877Z,4.72
2023-05-16T00:36:39.559Z,5.72
2023-05-16T00:39:10.664Z,4.85
2023-05-16T00:41:38.696Z,5.10
2023-05-16T00:44:06.416Z,5.33
2023-05-16T00:46:34.369Z,4.55
2023-05-16T00:49:02.953Z,4.67
2023-05-16T00:51:30.911Z,5.05
2023-05-16T00:53:59.613Z,4.60
2023-05-16T00:56:27.334Z,5.15
2023-05-16T00:58:55.145Z,5.10
2023-05-16T01:01:25.393Z,4.80
2023-05-16T01:03:54.016Z,4.35
2023-05-16T01:06:21.630Z,4.62
2023-05-16T01:08:49.241Z,4.35
2023-05-16T01:11:27.697Z,4.20
2023-05-16T01:14:26.383Z,4.37
2023-05-16T01:17:26.858Z,4.92
2023-05-16T01:20:10.601Z,4.08
2023-05-16T01:22:48.152Z,4.55
2023-05-16T01:25:56.334Z,4.58
2023-05-16T01:28:25.614Z,4.03
2023-05-16T01:30:53.711Z,4.08
2023-05-16T01:33:21.531Z,4.20
2023-05-16T01:36:17.739Z,4.03
2023-05-16T01:39:36.075Z,4.85
2023-05-16T01:42:15.367Z,4.30
2023-05-16T01:44:57.534Z,4.20
2023-05-16T01:47:27.259Z,4.60
2023-05-16T01:50:12.372Z,4.45
2023-05-16T01:52:50.558Z,4.47
2023-05-16T01:55:38.646Z,4.37
2023-05-16T01:58:08.317Z,4.70
2023-05-16T02:00:36.247Z,4.50
2023-05-16T02:03:04.535Z,4.70
2023-05-16T02:05:32.934Z,4.47
2023-05-16T02:08:01.177Z,4.87
2023-05-16T02:10:29.004Z,4.58
2023-05-16T02:12:57.284Z,4.50
2023-05-16T02:15:25.321Z,4.65
2023-05-16T02:17:53.661Z,4.85
2023-05-16T02:20:21.409Z,4.10
2023-05-16T02:22:49.515Z,4.58
2023-05-16T02:25:17.174Z,4.10
2023-05-16T02:27:44.885Z,4.72
2023-05-16T02:30:13.287Z,4.70
2023-05-16T02:32:43.457Z,4.22
2023-05-16T02:35:11.815Z,3.95
2023-05-16T02:37:40.530Z,4.08
2023-05-16T02:40:09.727Z,4.50
2023-05-16T02:42:37.622Z,4.60
2023-05-16T02:45:06.357Z,4.53
2023-05-16T02:47:34.144Z,4.30
2023-05-16T02:50:03.192Z,4.30
2023-05-16T02:52:32.728Z,4.65
2023-05-16T02:55:16.108Z,4.80
2023-05-16T02:57:29.548Z,3.87
2023-05-16T02:59:57.974Z,3.62
2023-05-16T03:02:25.995Z,4.40
2023-05-16T03:04:53.977Z,4.65
2023-05-16T03:07:21.803Z,3.83
2023-05-16T03:09:49.600Z,4.05
2023-05-16T03:12:17.469Z,4.12
2023-05-16T03:14:45.339Z,4.95
2023-05-16T03:17:12.889Z,4.15
2023-05-16T03:19:40.601Z,4.35
2023-05-16T03:22:08.396Z,3.95
2023-05-16T03:24:35.874Z,4.37
2023-05-16T03:27:04.285Z,4.67
2023-05-16T03:29:31.830Z,4.62
2023-05-16T03:31:59.714Z,4.90
2023-05-16T03:34:27.638Z,4.62
2023-05-16T03:36:55.689Z,5.83
2023-05-16T03:39:23.396Z,6.20
2023-05-16T03:41:51.735Z,7.28
2023-05-16T03:44:19.416Z,5.50
2023-05-16T03:46:47.165Z,5.90
2023-05-16T03:49:14.636Z,5.45
2023-05-16T03:51:42.277Z,5.35
2023-05-16T03:54:09.864Z,6.35
2023-05-16T03:56:37.438Z,5.37
2023-05-16T03:59:05.795Z,4.70
2023-05-16T04:01:33.540Z,4.72
2023-05-16T04:04:01.253Z,5.40
2023-05-16T04:06:28.910Z,4.53
2023-05-16T04:08:57.149Z,5.12
2023-05-16T04:11:26.320Z,4.55
2023-05-16T04:13:54.232Z,5.37
2023-05-16T04:16:22.428Z,4.55
2023-05-16T04:18:58.823Z,5.30
2023-05-16T04:21:27.108Z,5.08
2023-05-16T04:23:54.917Z,5.12
2023-05-16T04:26:27.852Z,5.40
2023-05-16T04:28:54.415Z,5.30
2023-05-16T04:31:22.951Z,5.83
2023-05-16T04:33:50.660Z,5.37
2023-05-16T04:36:19.284Z,5.47
2023-05-16T04:38:47.367Z,5.33
2023-05-16T04:41:17.733Z,4.97
2023-05-16T04:43:48.106Z,4.72
2023-05-16T04:46:16.215Z,4.50
2023-05-16T04:48:53.032Z,4.92
2023-05-16T04:51:22.353Z,4.65
2023-05-16T04:53:51.469Z,4.90
2023-05-16T04:56:19.897Z,5.20
2023-05-16T04:58:47.664Z,4.83
2023-05-16T05:01:15.486Z,5.15
2023-05-16T05:03:43.069Z,6.00
2023-05-16T05:06:11.158Z,5.28
2023-05-16T05:08:39.282Z,4.35
2023-05-16T05:11:06.930Z,4.87
2023-05-16T05:13:34.609Z,5.42
2023-05-16T05:16:04.359Z,5.83
2023-05-16T05:18:32.304Z,6.53
2023-05-16T05:21:00.179Z,6.83
2023-05-16T05:23:28.100Z,4.50
2023-05-16T05:25:55.827Z,4.58
2023-05-16T05:28:23.545Z,4.97
2023-05-16T05:30:51.667Z,4.58
2023-05-16T05:33:19.396Z,6.53
2023-05-16T05:35:47.360Z,6.05
2023-05-16T05:38:15.755Z,5.15
2023-05-16T05:40:43.481Z,5.33
2023-05-16T05:43:11.724Z,5.15
2023-05-16T05:45:39.493Z,4.33
2023-05-16T05:48:07.807Z,5.37
2023-05-16T05:50:35.531Z,5.22
2023-05-16T05:53:03.420Z,5.78
2023-05-16T05:55:31.120Z,6.50
2023-05-16T05:57:58.969Z,4.65
2023-05-16T06:00:27.631Z,4.83
2023-05-16T06:02:56.253Z,5.28
2023-05-16T06:05:32.319Z,5.25
2023-05-16T06:08:01.847Z,5.53
2023-05-16T06:10:29.804Z,5.50
2023-05-16T06:12:57.486Z,4.67
2023-05-16T06:15:26.144Z,4.92
2023-05-16T06:17:54.335Z,4.97
2023-05-16T06:20:22.225Z,4.95
2023-05-16T06:22:50.239Z,4.70
2023-05-16T06:25:17.960Z,4.70
2023-05-16T06:27:45.725Z,4.67
2023-05-16T06:30:13.668Z,4.80
2023-05-16T06:32:41.839Z,4.58
2023-05-16T06:35:09.729Z,3.92
2023-05-16T06:37:37.599Z,4.30
2023-05-16T06:40:06.828Z,4.35
2023-05-16T06:42:34.757Z,5.22
2023-05-16T06:45:03.264Z,4.33
2023-05-16T06:47:35.697Z,3.98
2023-05-16T06:50:04.398Z,5.30
2023-05-16T06:52:32.230Z,4.67
2023-05-16T06:54:59.894Z,4.40
2023-05-16T06:57:28.758Z,4.55
2023-05-16T06:59:56.625Z,4.83
2023-05-16T07:02:24.182Z,4.53
2023-05-16T07:04:52.421Z,5.33
2023-05-16T07:07:20.094Z,4.05
2023-05-16T07:09:47.781Z,4.60
2023-05-16T07:12:15.512Z,4.80
2023-05-16T07:14:43.217Z,4.92
2023-05-16T07:17:11.284Z,4.95
2023-05-16T07:19:38.891Z,4.70
2023-05-16T07:22:06.476Z,5.15
2023-05-16T07:24:34.037Z,4.78
2023-05-16T07:27:01.724Z,4.80
2023-05-16T07:29:30.050Z,5.70
2023-05-16T07:31:57.623Z,5.80
2023-05-16T07:34:25.930Z,4.72
2023-05-16T07:36:53.729Z,4.87
2023-05-16T07:39:21.400Z,3.98
2023-05-16T07:41:52.031Z,4.70
2023-05-16T07:44:19.567Z,4.37
2023-05-16T07:46:47.521Z,5.58
2023-05-16T07:49:15.672Z,4.15
2023-05-16T07:51:43.398Z,4.10
2023-05-16T07:54:11.281Z,5.15
2023-05-16T07:56:39.016Z,5.22
2023-05-16T07:59:06.650Z,5.53
2023-05-16T08:01:34.528Z,4.53
2023-05-16T08:04:02.107Z,5.08
2023-05-16T08:06:30.787Z,5.22
2023-05-16T08:08:58.510Z,5.10
2023-05-16T08:11:26.331Z,5.20
2023-05-16T08:13:54.058Z,7.78
2023-05-16T08:16:21.748Z,4.92
2023-05-16T08:18:49.484Z,5.60
2023-05-16T08:21:17.148Z,4.20
2023-05-16T08:23:45.055Z,5.10
2023-05-16T08:26:12.866Z,5.15
2023-05-16T08:28:40.492Z,5.05
2023-05-16T08:31:08.022Z,5.58
2023-05-16T08:33:35.796Z,4.95
2023-05-16T08:36:04.129Z,5.10
2023-05-16T08:38:32.052Z,4.80
2023-05-16T08:40:59.886Z,4.60
2023-05-16T08:43:28.147Z,4.83
2023-05-16T08:45:56.307Z,4.28
2023-05-16T08:48:25.775Z,5.62
2023-05-16T08:50:53.568Z,4.25
2023-05-16T08:53:29.822Z,4.42
2023-05-16T08:55:58.856Z,4.15
2023-05-16T08:58:27.686Z,4.25
2023-05-16T09:00:57.017Z,5.08
2023-05-16T09:03:25.434Z,5.33
2023-05-16T09:05:53.289Z,4.83
2023-05-16T09:08:21.302Z,5.12
2023-05-16T09:10:49.233Z,5.67
2023-05-16T09:13:17.136Z,5.00
2023-05-16T09:15:45.133Z,5.40
2023-05-16T09:18:16.158Z,5.35
2023-05-16T09:20:46.603Z,7.78
2023-05-16T09:23:16.588Z,4.67
2023-05-16T09:25:44.574Z,4.45
2023-05-16T09:28:12.299Z,5.08
2023-05-16T09:30:41.742Z,4.65
2023-05-16T09:33:09.567Z,4.22
2023-05-16T09:35:44.017Z,4.83
2023-05-16T09:38:12.130Z,4.55
2023-05-16T09:40:41.648Z,4.92
2023-05-16T09:43:10.443Z,4.65
2023-05-16T09:45:38.367Z,4.60
2023-05-16T09:48:12.543Z,4.20
2023-05-16T09:50:42.434Z,3.85
2023-05-16T09:53:10.222Z,4.33
2023-05-16T09:55:37.726Z,4.75
2023-05-16T09:58:05.536Z,4.45
2023-05-16T10:00:34.620Z,4.75
2023-05-16T10:03:05.386Z,4.25
2023-05-16T10:05:32.712Z,3.85
2023-05-16T10:08:03.796Z,4.72
2023-05-16T10:10:34.376Z,4.20
2023-05-16T10:13:06.734Z,4.28
2023-05-16T10:15:38.392Z,4.83
2023-05-16T10:18:15.086Z,4.10
2023-05-16T10:20:48.663Z,12.05
2023-05-16T10:23:24.260Z,3.50
2023-05-16T10:25:56.272Z,3.70
2023-05-16T10:30:55.772Z,3.02
2023-05-16T10:33:24.188Z,2.87
2023-05-16T10:35:52.381Z,3.02
2023-05-16T10:38:23.917Z,4.55
2023-05-16T10:41:16.378Z,2.62
2023-05-16T10:43:57.996Z,3.33
2023-05-16T10:46:30.777Z,2.95
2023-05-16T10:48:59.516Z,2.08
2023-05-16T10:51:36.638Z,2.85
2023-05-16T10:54:13.743Z,2.45
2023-05-16T10:56:42.699Z,2.55
2023-05-16T10:59:26.147Z,2.77
2023-05-16T11:01:58.325Z,3.45
2023-05-16T11:04:57.155Z,2.60
2023-05-16T11:07:38.841Z,2.85
2023-05-16T11:13:51.120Z,2.35
2023-05-16T11:16:29.862Z,2.12
2023-05-16T11:19:07.749Z,2.70
2023-05-16T11:22:17.138Z,2.27
2023-05-16T11:25:10.832Z,2.27
2023-05-16T11:27:45.194Z,2.62
2023-05-16T11:30:20.950Z,2.20
2023-05-16T11:32:55.450Z,2.17
2023-05-16T11:35:23.166Z,2.02
2023-05-16T11:37:54.006Z,1.92
2023-05-16T11:40:21.722Z,2.60
2023-05-16T11:42:49.576Z,2.98
2023-05-16T11:45:21.221Z,2.37
2023-05-16T11:47:49.840Z,2.00
2023-05-16T11:50:25.728Z,2.00
2023-05-16T11:52:56.571Z,2.05
2023-05-16T11:58:12.982Z,1.85
2023-05-16T12:00:50.175Z,2.70
2023-05-16T12:03:20.129Z,2.12
2023-05-16T12:05:56.599Z,3.27
2023-05-16T12:08:24.832Z,2.83
2023-05-16T12:10:53.855Z,2.27
2023-05-16T12:13:24.066Z,2.60
2023-05-16T12:15:56.649Z,2.45
2023-05-16T12:18:24.632Z,2.42
2023-05-16T12:20:55.536Z,2.22
2023-05-16T12:26:32.952Z,2.67
2023-05-16T12:29:03.526Z,5.70
2023-05-16T12:31:37.570Z,3.00
2023-05-16T12:34:05.666Z,2.87
2023-05-16T12:36:34.525Z,3.67
2023-05-16T12:39:03.476Z,2.80
2023-05-16T12:41:32.028Z,3.22
2023-05-16T12:44:18.966Z,2.87
2023-05-16T12:46:50.973Z,3.65
2023-05-16T12:49:24.911Z,3.08
2023-05-16T12:51:55.606Z,3.72
2023-05-16T12:54:23.412Z,2.30
2023-05-16T12:56:51.350Z,4.00
2023-05-16T12:59:20.274Z,3.55
2023-05-16T13:01:48.313Z,2.90
2023-05-16T13:04:19.677Z,3.12
2023-05-16T13:06:57.676Z,3.92
2023-05-16T13:09:17.638Z,3.12
2023-05-16T13:11:45.704Z,3.25
2023-05-16T13:14:13.428Z,2.75
2023-05-16T13:16:41.202Z,3.05
2023-05-16T13:19:09.238Z,3.25
2023-05-16T13:21:37.115Z,2.92
2023-05-16T13:24:06.034Z,3.22
2023-05-16T13:26:34.504Z,3.00
2023-05-16T13:29:02.414Z,2.87
2023-05-16T13:31:30.277Z,2.65
2023-05-16T13:33:58.334Z,3.10
2023-05-16T13:36:26.169Z,3.65
2023-05-16T13:38:53.899Z,3.02
2023-05-16T13:41:21.702Z,4.22
2023-05-16T13:43:49.636Z,2.87
2023-05-16T13:46:17.464Z,3.65
2023-05-16T13:48:45.445Z,3.67
2023-05-16T13:51:14.740Z,3.12
2023-05-16T13:53:42.740Z,2.58
2023-05-16T13:56:10.605Z,2.95
2023-05-16T13:58:48.945Z,3.67
2023-05-16T14:01:08.183Z,3.65
2023-05-16T14:03:36.446Z,3.30
2023-05-16T14:06:04.301Z,3.92
2023-05-16T14:08:32.120Z,4.30
2023-05-16T14:11:00.067Z,3.72
2023-05-16T14:13:27.982Z,3.80
2023-05-16T14:15:55.667Z,2.98
2023-05-16T14:18:23.404Z,2.60
2023-05-16T14:20:50.941Z,2.90
2023-05-16T14:23:18.782Z,3.70
2023-05-16T14:25:46.586Z,3.33
2023-05-16T14:28:14.893Z,3.33
2023-05-16T14:30:42.628Z,3.75
2023-05-16T14:33:10.607Z,3.75
2023-05-16T14:35:40.553Z,3.62
2023-05-16T14:38:08.122Z,3.85
2023-05-16T14:40:35.836Z,4.00
2023-05-16T14:43:03.908Z,3.75
2023-05-16T14:45:31.462Z,4.12
2023-05-16T14:47:59.440Z,5.22
2023-05-16T14:50:29.428Z,9.38
2023-05-16T14:52:57.448Z,6.33
2023-05-16T14:55:25.550Z,8.03
2023-05-16T14:57:59.302Z,7.00
2023-05-16T15:00:25.558Z,7.83
2023-05-16T15:02:53.639Z,5.70
2023-05-16T15:05:21.686Z,5.30
2023-05-16T15:07:50.260Z,5.00
2023-05-16T15:10:17.924Z,4.53
2023-05-16T15:12:45.786Z,5.47
2023-05-16T15:15:21.852Z,4.47
2023-05-16T15:17:50.405Z,4.87
2023-05-16T15:20:19.871Z,5.03
2023-05-16T15:22:48.011Z,4.62
2023-05-16T15:25:15.993Z,6.05
2023-05-16T15:27:44.259Z,4.25
2023-05-16T15:30:12.337Z,5.35
2023-05-16T15:32:40.256Z,4.95
2023-05-16T15:35:08.476Z,4.85
2023-05-16T15:37:36.588Z,4.95
2023-05-16T15:40:05.509Z,4.92
2023-05-16T15:42:32.946Z,5.90
2023-05-16T15:45:00.792Z,5.45
2023-05-16T15:47:28.579Z,5.00
2023-05-16T15:49:56.229Z,6.12
2023-05-16T15:52:23.962Z,6.15
2023-05-16T15:54:51.725Z,5.92
2023-05-16T15:57:19.711Z,6.10
2023-05-16T15:59:47.357Z,5.25
2023-05-16T16:02:15.037Z,7.08
2023-05-16T16:04:43.009Z,7.05
2023-05-16T16:07:11.594Z,6.75
2023-05-16T16:09:39.846Z,6.17
2023-05-16T16:12:08.215Z,6.85
2023-05-16T16:14:35.934Z,7.33
2023-05-16T16:17:04.271Z,7.22
2023-05-16T16:19:34.941Z,7.58
2023-05-16T16:22:05.550Z,7.20
2023-05-16T16:24:34.486Z,7.05
2023-05-16T16:27:02.711Z,7.55
2023-05-16T16:29:30.376Z,7.58
2023-05-16T16:31:58.743Z,6.62
2023-05-16T16:34:26.997Z,7.72
2023-05-16T16:36:54.553Z,6.50
2023-05-16T16:39:22.337Z,5.87
2023-05-16T16:41:49.873Z,6.78
2023-05-16T16:44:19.404Z,6.70
2023-05-16T16:46:51.060Z,6.85
2023-05-16T16:49:20.989Z,7.58
2023-05-16T16:51:49.541Z,9.30
2023-05-16T16:54:40.380Z,11.10
2023-05-16T16:57:13.536Z,12.75
2023-05-16T16:59:41.768Z,11.78
2023-05-16T17:02:10.136Z,10.82
2023-05-16T17:04:38.895Z,11.43
2023-05-16T17:07:07.128Z,9.70
2023-05-16T17:09:40.592Z,9.28
2023-05-16T17:12:12.880Z,9.80
2023-05-16T17:14:43.236Z,11.70
2023-05-16T17:17:11.223Z,10.72
2023-05-16T17:19:40.169Z,11.03
2023-05-16T17:22:10.039Z,9.43
2023-05-16T17:24:39.935Z,9.65
2023-05-16T17:27:14.174Z,9.68
2023-05-16T17:30:01.733Z,10.95
2023-05-16T17:32:30.384Z,9.83
2023-05-16T17:35:03.555Z,9.55
2023-05-16T17:37:32.503Z,8.48
2023-05-16T17:40:02.314Z,8.73
2023-05-16T17:42:33.642Z,9.23
2023-05-16T17:45:05.355Z,9.83
2023-05-16T17:47:33.291Z,10.80
2023-05-16T17:50:01.959Z,13.28
2023-05-16T17:52:30.859Z,14.10
2023-05-16T17:55:03.584Z,23.27
2023-05-16T17:57:31.431Z,32.93
2023-05-16T17:59:59.489Z,32.48
2023-05-16T18:02:27.512Z,19.92
2023-05-16T18:04:55.273Z,16.90
2023-05-16T18:07:24.802Z,14.98
2023-05-16T18:09:53.724Z,13.80
2023-05-16T18:12:21.903Z,14.70
2023-05-16T18:14:53.551Z,14.30
2023-05-16T18:17:22.320Z,13.70
2023-05-16T18:19:55.187Z,13.13
2023-05-16T18:22:29.558Z,13.28
2023-05-16T18:24:57.428Z,12.58
2023-05-16T18:27:25.715Z,12.43
2023-05-16T18:29:57.538Z,12.37
2023-05-16T18:32:25.668Z,12.13
2023-05-16T18:34:53.250Z,12.95
2023-05-16T18:37:21.024Z,13.43
2023-05-16T18:39:48.984Z,13.08
2023-05-16T18:42:17.658Z,16.70
2023-05-16T18:44:46.166Z,17.60
2023-05-16T18:47:15.360Z,15.83
2023-05-16T18:49:43.114Z,15.68
2023-05-16T18:52:11.952Z,14.63
2023-05-16T18:54:39.700Z,14.90
2023-05-16T18:57:07.749Z,15.10
2023-05-16T18:59:36.978Z,16.27
2023-05-16T19:02:05.576Z,15.65
2023-05-16T19:04:36.479Z,16.73
2023-05-16T19:07:05.624Z,16.70
2023-05-16T19:09:34.247Z,20.80
2023-05-16T19:12:01.993Z,18.62
2023-05-16T19:14:29.581Z,18.90
2023-05-16T19:16:57.744Z,18.50
2023-05-16T19:19:25.572Z,15.55
2023-05-16T19:21:53.730Z,15.85
2023-05-16T19:24:21.921Z,15.35
2023-05-16T19:26:49.810Z,15.88
2023-05-16T19:29:18.496Z,18.17
2023-05-16T19:31:46.260Z,22.25
2023-05-16T19:34:14.054Z,23.18
2023-05-16T19:36:41.976Z,21.68
2023-05-16T19:39:10.241Z,19.95
2023-05-16T19:41:38.050Z,18.25
2023-05-16T19:44:06.009Z,17.85
2023-05-16T19:46:34.714Z,13.88
2023-05-16T19:49:04.896Z,13.00
2023-05-16T19:51:41.980Z,12.10
2023-05-16T19:54:06.517Z,12.45
2023-05-16T19:56:34.320Z,10.20
2023-05-16T19:59:02.507Z,9.88
2023-05-16T20:01:30.263Z,17.75
2023-05-16T20:04:00.062Z,19.65
2023-05-16T20:06:28.526Z,24.35
2023-05-16T20:08:56.748Z,27.73
2023-05-16T20:11:26.352Z,21.90
2023-05-16T20:13:55.221Z,22.70
2023-05-16T20:16:27.566Z,18.62
2023-05-16T20:18:56.019Z,18.57
2023-05-16T20:21:26.378Z,14.93
2023-05-16T20:23:55.189Z,15.72
2023-05-16T20:26:23.459Z,8.45
2023-05-16T20:28:51.179Z,6.95
2023-05-16T20:31:19.628Z,5.50
2023-05-16T20:33:47.650Z,6.00
2023-05-16T20:36:15.708Z,5.08
2023-05-16T20:38:45.903Z,6.00
2023-05-16T20:41:14.066Z,4.40
2023-05-16T20:43:49.247Z,4.90
2023-05-16T20:46:17.617Z,6.30
2023-05-16T20:48:45.741Z,6.03
2023-05-16T20:51:13.926Z,5.80
2023-05-16T20:53:42.201Z,4.50
2023-05-16T20:56:11.239Z,4.50
2023-05-16T20:58:43.579Z,4.25
2023-05-16T21:01:13.331Z,3.87
2023-05-16T21:03:45.441Z,4.00
2023-05-16T21:06:13.887Z,3.90
2023-05-16T21:08:48.762Z,3.70
2023-05-16T21:11:17.132Z,5.05
2023-05-16T21:13:45.391Z,5.40
2023-05-16T21:16:13.336Z,6.22
2023-05-16T21:18:41.409Z,5.50
2023-05-16T21:21:09.666Z,5.47
2023-05-16T21:23:38.871Z,5.78
2023-05-16T21:26:06.992Z,5.53
2023-05-16T21:28:42.663Z,5.83
2023-05-16T21:31:05.674Z,5.12
2023-05-16T21:33:33.605Z,4.22
2023-05-16T21:36:03.306Z,4.22
2023-05-16T21:38:31.643Z,4.35
2023-05-16T21:41:02.531Z,3.70
2023-05-16T21:43:31.505Z,3.87
2023-05-16T21:46:01.859Z,3.50
2023-05-16T21:48:30.213Z,4.33
2023-05-16T21:50:58.622Z,4.15
2023-05-16T21:53:26.722Z,3.87
2023-05-16T21:55:59.292Z,3.85
2023-05-16T21:58:28.830Z,4.35
2023-05-16T22:00:56.529Z,5.92
2023-05-16T22:03:24.301Z,5.87
2023-05-16T22:05:52.289Z,5.10
2023-05-16T22:08:20.098Z,5.70
2023-05-16T22:10:48.409Z,5.72
2023-05-16T22:13:16.300Z,5.80
2023-05-16T22:15:55.621Z,6.20
2023-05-16T22:18:16.218Z,6.03
2023-05-16T22:20:44.124Z,6.20
2023-05-16T22:23:12.155Z,6.25
2023-05-16T22:25:40.189Z,5.33
2023-05-16T22:28:07.893Z,5.22
2023-05-16T22:30:35.835Z,5.58
2023-05-16T22:33:04.069Z,4.50
2023-05-16T22:35:32.092Z,5.15
2023-05-16T22:38:00.162Z,5.00
2023-05-16T22:40:28.359Z,5.55
2023-05-16T22:42:56.269Z,4.85
2023-05-16T22:45:23.887Z,5.10
2023-05-16T22:47:51.833Z,5.20
2023-05-16T22:50:19.607Z,4.75
2023-05-16T22:52:47.404Z,5.00
2023-05-16T22:55:15.207Z,4.37
2023-05-16T22:57:43.982Z,4.83
2023-05-16T23:00:13.394Z,4.67
2023-05-16T23:02:44.526Z,4.47
2023-05-16T23:05:12.479Z,4.80
2023-05-16T23:07:40.495Z,5.42
2023-05-16T23:10:09.290Z,5.28
2023-05-16T23:12:37.738Z,5.60
2023-05-16T23:15:08.944Z,5.47
2023-05-16T23:17:40.912Z,4.92
2023-05-16T23:20:09.594Z,4.60
2023-05-16T23:22:37.210Z,4.67
2023-05-16T23:25:06.588Z,4.78
2023-05-16T23:27:34.448Z,4.62
2023-05-16T23:30:02.412Z,4.80
2023-05-16T23:32:30.489Z,4.55
2023-05-16T23:34:58.487Z,4.90
2023-05-16T23:37:26.349Z,4.03
2023-05-16T23:39:53.884Z,4.03
2023-05-16T23:42:21.476Z,3.98
2023-05-16T23:44:50.281Z,4.78
2023-05-16T23:47:18.060Z,5.20
2023-05-16T23:49:45.862Z,4.15
2023-05-16T23:52:13.589Z,4.33
2023-05-16T23:54:41.234Z,4.62
2023-05-16T23:57:10.295Z,3.75
2023-05-16T23:59:38.827Z,4.70
